Brookside, Utah
Current Conditions -  °F | °C
As of 4:15 PM on Saturday 25 Oct 2014 (Local Time) from KSGU Reporting Station
Few Clouds Few Clouds  
Wind Chill: 84°   Ceiling: Unl
Heat Index: 84°   Visibility: 10mi
Dew Point: 43°   Wind: 23mph
Humidity: 23%   Direction: 210°SSW
Pressure: 30.02"   Gusts: 32mph
Location:  37.352°N, 113.671°W
Report Text: KSGU 252215Z AUTO 21020G28KT 10SM FEW095 29/06 A3002 RMK AO1
Loading
Personal Weather Stations






























Interactive Weather Map
Tropical Storm Tracking
New forecast layout! Learn more

10-Day Weather Forecast

Advertisements
Track Severe Weather on mobile